sensor_id;sensor_type;location;lat;lon;timestamp;P1;durP1;ratioP1;P2;durP2;ratioP2
34920;SDS011;21128;50.016;20.002;2022-08-14T00:00:12;14.80;;;12.90;;
34920;SDS011;21128;50.016;20.002;2022-08-14T00:03:01;22.80;;;12.60;;
34920;SDS011;21128;50.016;20.002;2022-08-14T00:05:28;13.95;;;12.47;;
34920;SDS011;21128;50.016;20.002;2022-08-14T00:07:55;16.05;;;13.75;;
34920;SDS011;21128;50.016;20.002;2022-08-14T00:10:22;14.87;;;13.07;;
34920;SDS011;21128;50.016;20.002;2022-08-14T00:12:50;16.52;;;13.60;;
34920;SDS011;21128;50.016;20.002;2022-08-14T00:17:46;14.15;;;12.20;;
34920;SDS011;21128;50.016;20.002;2022-08-14T00:20:23;23.37;;;14.57;;
34920;SDS011;21128;50.016;20.002;2022-08-14T00:22:52;14.67;;;12.73;;
34920;SDS011;21128;50.016;20.002;2022-08-14T00:25:19;16.25;;;12.75;;
34920;SDS011;21128;50.016;20.002;2022-08-14T00:27:46;15.90;;;13.83;;
34920;SDS011;21128;50.016;20.002;2022-08-14T00:30:14;14.47;;;12.57;;
34920;SDS011;21128;50.016;20.002;2022-08-14T00:32:41;16.67;;;13.07;;
34920;SDS011;21128;50.016;20.002;2022-08-14T00:35:09;16.40;;;13.10;;
34920;SDS011;21128;50.016;20.002;2022-08-14T00:37:38;14.13;;;12.73;;
34920;SDS011;21128;50.016;20.002;2022-08-14T00:40:07;17.77;;;13.40;;
34920;SDS011;21128;50.016;20.002;2022-08-14T00:42:36;16.10;;;13.97;;
34920;SDS011;21128;50.016;20.002;2022-08-14T00:45:04;18.67;;;13.47;;
34920;SDS011;21128;50.016;20.002;2022-08-14T00:47:32;19.63;;;13.50;;
34920;SDS011;21128;50.016;20.002;2022-08-14T00:50:01;17.83;;;13.40;;
34920;SDS011;21128;50.016;20.002;2022-08-14T00:52:44;15.57;;;13.00;;
34920;SDS011;21128;50.016;20.002;2022-08-14T00:55:12;16.57;;;13.07;;
34920;SDS011;21128;50.016;20.002;2022-08-14T00:57:46;17.10;;;13.00;;
34920;SDS011;21128;50.016;20.002;2022-08-14T01:00:37;13.83;;;12.43;;
34920;SDS011;21128;50.016;20.002;2022-08-14T01:03:06;14.53;;;11.93;;
34920;SDS011;21128;50.016;20.002;2022-08-14T01:05:33;16.43;;;11.73;;
34920;SDS011;21128;50.016;20.002;2022-08-14T01:08:01;16.55;;;13.15;;
34920;SDS011;21128;50.016;20.002;2022-08-14T01:10:28;16.52;;;12.68;;
34920;SDS011;21128;50.016;20.002;2022-08-14T01:13:38;19.50;;;13.80;;
34920;SDS011;21128;50.016;20.002;2022-08-14T01:16:06;17.87;;;12.67;;
34920;SDS011;21128;50.016;20.002;2022-08-14T01:18:36;21.90;;;13.40;;
34920;SDS011;21128;50.016;20.002;2022-08-14T01:21:30;16.17;;;13.25;;
34920;SDS011;21128;50.016;20.002;2022-08-14T01:23:57;16.30;;;12.27;;
34920;SDS011;21128;50.016;20.002;2022-08-14T01:26:24;23.57;;;13.80;;
34920;SDS011;21128;50.016;20.002;2022-08-14T01:28:52;19.80;;;13.15;;
34920;SDS011;21128;50.016;20.002;2022-08-14T01:31:22;16.70;;;12.83;;
34920;SDS011;21128;50.016;20.002;2022-08-14T01:33:51;16.00;;;12.30;;
34920;SDS011;21128;50.016;20.002;2022-08-14T01:36:22;16.97;;;13.80;;
34920;SDS011;21128;50.016;20.002;2022-08-14T01:38:52;17.23;;;12.67;;
34920;SDS011;21128;50.016;20.002;2022-08-14T01:41:24;18.57;;;12.33;;
34920;SDS011;21128;50.016;20.002;2022-08-14T01:43:54;16.73;;;13.57;;
34920;SDS011;21128;50.016;20.002;2022-08-14T01:46:30;18.13;;;12.10;;
34920;SDS011;21128;50.016;20.002;2022-08-14T01:49:07;16.40;;;12.57;;
34920;SDS011;21128;50.016;20.002;2022-08-14T01:51:37;16.07;;;12.30;;
34920;SDS011;21128;50.016;20.002;2022-08-14T01:54:12;15.27;;;12.97;;
34920;SDS011;21128;50.016;20.002;2022-08-14T01:56:41;17.07;;;14.17;;
34920;SDS011;21128;50.016;20.002;2022-08-14T02:01:50;17.55;;;12.85;;
34920;SDS011;21128;50.016;20.002;2022-08-14T02:04:19;15.30;;;13.50;;
34920;SDS011;21128;50.016;20.002;2022-08-14T02:06:47;17.70;;;13.03;;
34920;SDS011;21128;50.016;20.002;2022-08-14T02:09:16;18.17;;;12.97;;
34920;SDS011;21128;50.016;20.002;2022-08-14T02:11:45;16.53;;;14.07;;
34920;SDS011;21128;50.016;20.002;2022-08-14T02:14:12;17.20;;;13.93;;
34920;SDS011;21128;50.016;20.002;2022-08-14T02:16:40;20.27;;;13.53;;
34920;SDS011;21128;50.016;20.002;2022-08-14T02:19:20;16.40;;;13.13;;
34920;SDS011;21128;50.016;20.002;2022-08-14T02:21:50;22.03;;;14.43;;
34920;SDS011;21128;50.016;20.002;2022-08-14T02:24:20;18.07;;;14.03;;
34920;SDS011;21128;50.016;20.002;2022-08-14T02:26:50;18.43;;;14.20;;
34920;SDS011;21128;50.016;20.002;2022-08-14T02:29:19;18.25;;;14.05;;
34920;SDS011;21128;50.016;20.002;2022-08-14T02:31:49;17.43;;;14.03;;
34920;SDS011;21128;50.016;20.002;2022-08-14T02:34:21;20.53;;;15.10;;
34920;SDS011;21128;50.016;20.002;2022-08-14T02:36:56;16.60;;;14.30;;
34920;SDS011;21128;50.016;20.002;2022-08-14T02:39:30;17.73;;;14.83;;
34920;SDS011;21128;50.016;20.002;2022-08-14T02:41:58;19.60;;;15.47;;
34920;SDS011;21128;50.016;20.002;2022-08-14T02:44:25;15.37;;;13.30;;
34920;SDS011;21128;50.016;20.002;2022-08-14T02:46:53;18.13;;;15.03;;
34920;SDS011;21128;50.016;20.002;2022-08-14T02:49:23;18.40;;;14.97;;
34920;SDS011;21128;50.016;20.002;2022-08-14T02:52:01;19.53;;;14.83;;
34920;SDS011;21128;50.016;20.002;2022-08-14T02:54:32;19.80;;;16.13;;
34920;SDS011;21128;50.016;20.002;2022-08-14T02:57:06;18.40;;;14.87;;
34920;SDS011;21128;50.016;20.002;2022-08-14T02:59:40;17.30;;;14.87;;
34920;SDS011;21128;50.016;20.002;2022-08-14T03:02:14;21.03;;;15.83;;
34920;SDS011;21128;50.016;20.002;2022-08-14T03:04:41;17.83;;;15.43;;
34920;SDS011;21128;50.016;20.002;2022-08-14T03:07:08;17.63;;;15.37;;
34920;SDS011;21128;50.016;20.002;2022-08-14T03:09:36;19.57;;;15.67;;
34920;SDS011;21128;50.016;20.002;2022-08-14T03:12:05;19.20;;;16.17;;
34920;SDS011;21128;50.016;20.002;2022-08-14T03:14:31;18.20;;;15.93;;
34920;SDS011;21128;50.016;20.002;2022-08-14T03:17:02;21.43;;;16.80;;
34920;SDS011;21128;50.016;20.002;2022-08-14T03:19:30;17.87;;;15.97;;
34920;SDS011;21128;50.016;20.002;2022-08-14T03:21:57;22.87;;;16.37;;
34920;SDS011;21128;50.016;20.002;2022-08-14T03:24:24;21.37;;;16.53;;
34920;SDS011;21128;50.016;20.002;2022-08-14T03:26:51;20.90;;;17.70;;
34920;SDS011;21128;50.016;20.002;2022-08-14T03:29:21;24.90;;;17.30;;
34920;SDS011;21128;50.016;20.002;2022-08-14T03:31:48;21.77;;;17.10;;
34920;SDS011;21128;50.016;20.002;2022-08-14T03:34:17;22.70;;;16.90;;
34920;SDS011;21128;50.016;20.002;2022-08-14T03:36:44;21.35;;;15.98;;
34920;SDS011;21128;50.016;20.002;2022-08-14T03:39:11;28.80;;;18.45;;
34920;SDS011;21128;50.016;20.002;2022-08-14T03:41:38;26.00;;;17.75;;
34920;SDS011;21128;50.016;20.002;2022-08-14T03:44:05;24.97;;;17.53;;
34920;SDS011;21128;50.016;20.002;2022-08-14T03:46:39;22.93;;;18.10;;
34920;SDS011;21128;50.016;20.002;2022-08-14T03:49:08;25.57;;;18.90;;
34920;SDS011;21128;50.016;20.002;2022-08-14T03:51:35;23.13;;;17.40;;
34920;SDS011;21128;50.016;20.002;2022-08-14T03:54:09;17.70;;;15.70;;
34920;SDS011;21128;50.016;20.002;2022-08-14T03:56:38;20.47;;;18.03;;
34920;SDS011;21128;50.016;20.002;2022-08-14T03:59:10;26.67;;;18.53;;
34920;SDS011;21128;50.016;20.002;2022-08-14T04:01:39;27.03;;;17.97;;
34920;SDS011;21128;50.016;20.002;2022-08-14T04:04:13;23.80;;;17.07;;
34920;SDS011;21128;50.016;20.002;2022-08-14T04:06:39;22.63;;;17.13;;
34920;SDS011;21128;50.016;20.002;2022-08-14T04:09:06;24.00;;;17.23;;
34920;SDS011;21128;50.016;20.002;2022-08-14T04:11:34;27.83;;;16.83;;
34920;SDS011;21128;50.016;20.002;2022-08-14T04:14:05;22.40;;;17.63;;
34920;SDS011;21128;50.016;20.002;2022-08-14T04:16:32;22.93;;;17.60;;
34920;SDS011;21128;50.016;20.002;2022-08-14T04:18:59;19.77;;;16.40;;
34920;SDS011;21128;50.016;20.002;2022-08-14T04:21:29;22.93;;;17.40;;
34920;SDS011;21128;50.016;20.002;2022-08-14T04:23:58;25.97;;;17.97;;
34920;SDS011;21128;50.016;20.002;2022-08-14T04:26:31;22.77;;;17.77;;
34920;SDS011;21128;50.016;20.002;2022-08-14T04:28:58;27.37;;;17.17;;
34920;SDS011;21128;50.016;20.002;2022-08-14T04:31:33;23.87;;;16.97;;
34920;SDS011;21128;50.016;20.002;2022-08-14T04:34:00;20.80;;;16.70;;
34920;SDS011;21128;50.016;20.002;2022-08-14T04:36:29;23.77;;;16.53;;
34920;SDS011;21128;50.016;20.002;2022-08-14T04:38:57;21.27;;;16.97;;
34920;SDS011;21128;50.016;20.002;2022-08-14T04:41:43;26.13;;;17.10;;
34920;SDS011;21128;50.016;20.002;2022-08-14T04:44:28;21.47;;;17.17;;
34920;SDS011;21128;50.016;20.002;2022-08-14T04:46:55;24.40;;;17.33;;
34920;SDS011;21128;50.016;20.002;2022-08-14T04:49:40;23.30;;;16.80;;
34920;SDS011;21128;50.016;20.002;2022-08-14T04:52:20;21.53;;;16.67;;
34920;SDS011;21128;50.016;20.002;2022-08-14T04:54:46;23.03;;;17.73;;
34920;SDS011;21128;50.016;20.002;2022-08-14T04:57:13;22.73;;;17.43;;
34920;SDS011;21128;50.016;20.002;2022-08-14T04:59:40;21.77;;;17.37;;
34920;SDS011;21128;50.016;20.002;2022-08-14T05:02:07;26.07;;;17.83;;
34920;SDS011;21128;50.016;20.002;2022-08-14T05:04:40;21.90;;;16.77;;
34920;SDS011;21128;50.016;20.002;2022-08-14T05:07:07;28.30;;;18.63;;
34920;SDS011;21128;50.016;20.002;2022-08-14T05:09:33;25.83;;;18.97;;
34920;SDS011;21128;50.016;20.002;2022-08-14T05:12:00;25.57;;;18.17;;
34920;SDS011;21128;50.016;20.002;2022-08-14T05:17:00;25.07;;;17.53;;
34920;SDS011;21128;50.016;20.002;2022-08-14T05:19:26;19.07;;;15.53;;
34920;SDS011;21128;50.016;20.002;2022-08-14T05:21:53;22.00;;;17.60;;
34920;SDS011;21128;50.016;20.002;2022-08-14T05:24:24;20.67;;;15.77;;
34920;SDS011;21128;50.016;20.002;2022-08-14T05:26:51;19.73;;;14.80;;
34920;SDS011;21128;50.016;20.002;2022-08-14T05:29:17;22.00;;;15.97;;
34920;SDS011;21128;50.016;20.002;2022-08-14T05:31:44;23.97;;;15.97;;
34920;SDS011;21128;50.016;20.002;2022-08-14T05:34:11;19.80;;;15.40;;
34920;SDS011;21128;50.016;20.002;2022-08-14T05:36:38;21.47;;;14.30;;
34920;SDS011;21128;50.016;20.002;2022-08-14T05:39:06;18.43;;;14.77;;
34920;SDS011;21128;50.016;20.002;2022-08-14T05:41:33;20.52;;;15.23;;
34920;SDS011;21128;50.016;20.002;2022-08-14T05:44:00;15.87;;;13.50;;
34920;SDS011;21128;50.016;20.002;2022-08-14T05:46:27;22.17;;;13.23;;
34920;SDS011;21128;50.016;20.002;2022-08-14T05:48:55;20.17;;;15.00;;
34920;SDS011;21128;50.016;20.002;2022-08-14T05:51:23;17.92;;;13.62;;
34920;SDS011;21128;50.016;20.002;2022-08-14T05:53:58;20.13;;;13.90;;
34920;SDS011;21128;50.016;20.002;2022-08-14T05:56:25;16.27;;;13.23;;
34920;SDS011;21128;50.016;20.002;2022-08-14T05:58:52;17.00;;;13.95;;
34920;SDS011;21128;50.016;20.002;2022-08-14T06:01:19;14.60;;;12.00;;
34920;SDS011;21128;50.016;20.002;2022-08-14T06:03:53;15.13;;;11.40;;
34920;SDS011;21128;50.016;20.002;2022-08-14T06:06:33;14.57;;;11.43;;
34920;SDS011;21128;50.016;20.002;2022-08-14T06:09:00;14.10;;;11.23;;
34920;SDS011;21128;50.016;20.002;2022-08-14T06:11:36;16.37;;;11.47;;
34920;SDS011;21128;50.016;20.002;2022-08-14T06:14:04;19.10;;;11.33;;
34920;SDS011;21128;50.016;20.002;2022-08-14T06:16:31;15.28;;;11.68;;
34920;SDS011;21128;50.016;20.002;2022-08-14T06:19:01;13.13;;;10.93;;
34920;SDS011;21128;50.016;20.002;2022-08-14T06:21:28;16.13;;;10.23;;
34920;SDS011;21128;50.016;20.002;2022-08-14T06:23:55;12.73;;;10.07;;
34920;SDS011;21128;50.016;20.002;2022-08-14T06:26:28;11.53;;;9.50;;
34920;SDS011;21128;50.016;20.002;2022-08-14T06:28:54;11.83;;;9.10;;
34920;SDS011;21128;50.016;20.002;2022-08-14T06:31:21;12.07;;;9.50;;
34920;SDS011;21128;50.016;20.002;2022-08-14T06:33:48;10.05;;;8.55;;
34920;SDS011;21128;50.016;20.002;2022-08-14T06:36:16;8.53;;;7.13;;
34920;SDS011;21128;50.016;20.002;2022-08-14T06:38:44;8.50;;;7.37;;
34920;SDS011;21128;50.016;20.002;2022-08-14T06:41:11;13.07;;;7.60;;
34920;SDS011;21128;50.016;20.002;2022-08-14T06:43:38;8.93;;;6.83;;
34920;SDS011;21128;50.016;20.002;2022-08-14T06:46:05;8.87;;;7.60;;
34920;SDS011;21128;50.016;20.002;2022-08-14T06:48:38;9.20;;;6.50;;
34920;SDS011;21128;50.016;20.002;2022-08-14T06:51:05;8.43;;;6.37;;
34920;SDS011;21128;50.016;20.002;2022-08-14T06:53:38;9.07;;;6.47;;
34920;SDS011;21128;50.016;20.002;2022-08-14T06:56:05;6.67;;;5.43;;
34920;SDS011;21128;50.016;20.002;2022-08-14T06:58:32;8.10;;;5.57;;
34920;SDS011;21128;50.016;20.002;2022-08-14T07:00:59;5.97;;;5.00;;
34920;SDS011;21128;50.016;20.002;2022-08-14T07:03:45;8.43;;;6.03;;
34920;SDS011;21128;50.016;20.002;2022-08-14T07:06:30;6.20;;;5.60;;
34920;SDS011;21128;50.016;20.002;2022-08-14T07:09:04;9.07;;;4.93;;
34920;SDS011;21128;50.016;20.002;2022-08-14T07:11:30;7.50;;;5.43;;
34920;SDS011;21128;50.016;20.002;2022-08-14T07:13:58;6.40;;;5.60;;
34920;SDS011;21128;50.016;20.002;2022-08-14T07:16:25;6.50;;;4.87;;
34920;SDS011;21128;50.016;20.002;2022-08-14T07:18:51;7.72;;;5.33;;
34920;SDS011;21128;50.016;20.002;2022-08-14T07:21:18;6.80;;;5.07;;
34920;SDS011;21128;50.016;20.002;2022-08-14T07:23:45;7.30;;;5.17;;
34920;SDS011;21128;50.016;20.002;2022-08-14T07:26:12;7.30;;;5.37;;
34920;SDS011;21128;50.016;20.002;2022-08-14T07:28:39;8.47;;;5.10;;
34920;SDS011;21128;50.016;20.002;2022-08-14T07:31:13;6.50;;;4.90;;
34920;SDS011;21128;50.016;20.002;2022-08-14T07:33:44;11.70;;;8.90;;
34920;SDS011;21128;50.016;20.002;2022-08-14T07:36:14;7.03;;;5.73;;
34920;SDS011;21128;50.016;20.002;2022-08-14T07:38:42;9.43;;;6.73;;
34920;SDS011;21128;50.016;20.002;2022-08-14T07:41:10;10.50;;;6.47;;
34920;SDS011;21128;50.016;20.002;2022-08-14T07:43:39;10.85;;;6.65;;
34920;SDS011;21128;50.016;20.002;2022-08-14T07:46:07;6.83;;;5.63;;
34920;SDS011;21128;50.016;20.002;2022-08-14T07:48:40;7.43;;;6.00;;
34920;SDS011;21128;50.016;20.002;2022-08-14T07:51:17;6.17;;;5.53;;
34920;SDS011;21128;50.016;20.002;2022-08-14T07:53:58;7.47;;;5.43;;
34920;SDS011;21128;50.016;20.002;2022-08-14T07:56:25;6.97;;;5.83;;
34920;SDS011;21128;50.016;20.002;2022-08-14T07:58:53;10.30;;;7.67;;
34920;SDS011;21128;50.016;20.002;2022-08-14T08:01:20;8.97;;;7.00;;
34920;SDS011;21128;50.016;20.002;2022-08-14T08:03:47;12.98;;;7.40;;
34920;SDS011;21128;50.016;20.002;2022-08-14T08:06:22;12.00;;;7.90;;
34920;SDS011;21128;50.016;20.002;2022-08-14T08:08:49;12.47;;;7.97;;
34920;SDS011;21128;50.016;20.002;2022-08-14T08:11:18;8.97;;;7.70;;
34920;SDS011;21128;50.016;20.002;2022-08-14T08:13:45;9.63;;;8.63;;
34920;SDS011;21128;50.016;20.002;2022-08-14T08:16:13;9.40;;;8.40;;
34920;SDS011;21128;50.016;20.002;2022-08-14T08:18:39;11.38;;;8.13;;
34920;SDS011;21128;50.016;20.002;2022-08-14T08:21:06;10.18;;;8.00;;
34920;SDS011;21128;50.016;20.002;2022-08-14T08:23:33;10.00;;;8.43;;
34920;SDS011;21128;50.016;20.002;2022-08-14T08:26:00;8.60;;;7.70;;
34920;SDS011;21128;50.016;20.002;2022-08-14T08:28:27;8.83;;;7.92;;
34920;SDS011;21128;50.016;20.002;2022-08-14T08:31:02;11.80;;;8.95;;
34920;SDS011;21128;50.016;20.002;2022-08-14T08:33:32;13.07;;;9.43;;
34920;SDS011;21128;50.016;20.002;2022-08-14T08:36:07;12.73;;;8.80;;
34920;SDS011;21128;50.016;20.002;2022-08-14T08:38:38;11.60;;;7.93;;
34920;SDS011;21128;50.016;20.002;2022-08-14T08:41:05;11.13;;;7.60;;
34920;SDS011;21128;50.016;20.002;2022-08-14T08:43:33;15.73;;;8.70;;
34920;SDS011;21128;50.016;20.002;2022-08-14T08:46:05;11.57;;;8.53;;
34920;SDS011;21128;50.016;20.002;2022-08-14T08:48:47;14.40;;;7.87;;
34920;SDS011;21128;50.016;20.002;2022-08-14T08:51:26;12.23;;;7.33;;
34920;SDS011;21128;50.016;20.002;2022-08-14T08:54:10;8.33;;;7.37;;
34920;SDS011;21128;50.016;20.002;2022-08-14T08:56:42;9.03;;;6.80;;
34920;SDS011;21128;50.016;20.002;2022-08-14T09:01:48;11.80;;;7.50;;
34920;SDS011;21128;50.016;20.002;2022-08-14T09:04:26;11.60;;;8.87;;
34920;SDS011;21128;50.016;20.002;2022-08-14T09:07:02;14.00;;;10.00;;
34920;SDS011;21128;50.016;20.002;2022-08-14T09:09:30;10.00;;;7.77;;
34920;SDS011;21128;50.016;20.002;2022-08-14T09:12:04;11.57;;;7.90;;
34920;SDS011;21128;50.016;20.002;2022-08-14T09:14:32;9.65;;;8.25;;
34920;SDS011;21128;50.016;20.002;2022-08-14T09:17:01;11.90;;;8.33;;
34920;SDS011;21128;50.016;20.002;2022-08-14T09:19:28;9.30;;;8.20;;
34920;SDS011;21128;50.016;20.002;2022-08-14T09:21:55;9.53;;;7.77;;
34920;SDS011;21128;50.016;20.002;2022-08-14T09:24:22;9.00;;;7.87;;
34920;SDS011;21128;50.016;20.002;2022-08-14T09:26:49;9.70;;;7.90;;
34920;SDS011;21128;50.016;20.002;2022-08-14T09:29:18;7.40;;;6.60;;
34920;SDS011;21128;50.016;20.002;2022-08-14T09:31:46;7.23;;;5.53;;
34920;SDS011;21128;50.016;20.002;2022-08-14T09:37:13;8.20;;;6.45;;
34920;SDS011;21128;50.016;20.002;2022-08-14T09:42:43;9.00;;;7.10;;
34920;SDS011;21128;50.016;20.002;2022-08-14T09:45:30;7.30;;;5.70;;
34920;SDS011;21128;50.016;20.002;2022-08-14T09:48:00;6.57;;;5.00;;
34920;SDS011;21128;50.016;20.002;2022-08-14T09:50:43;4.83;;;4.33;;
34920;SDS011;21128;50.016;20.002;2022-08-14T09:56:03;5.40;;;4.90;;
34920;SDS011;21128;50.016;20.002;2022-08-14T09:58:35;5.73;;;4.43;;
34920;SDS011;21128;50.016;20.002;2022-08-14T10:01:09;4.93;;;4.07;;
34920;SDS011;21128;50.016;20.002;2022-08-14T10:03:45;6.50;;;5.00;;
34920;SDS011;21128;50.016;20.002;2022-08-14T10:08:51;6.77;;;4.30;;
34920;SDS011;21128;50.016;20.002;2022-08-14T10:11:32;6.13;;;3.77;;
34920;SDS011;21128;50.016;20.002;2022-08-14T10:16:43;9.13;;;4.27;;
34920;SDS011;21128;50.016;20.002;2022-08-14T10:19:13;8.30;;;3.80;;
34920;SDS011;21128;50.016;20.002;2022-08-14T10:21:55;6.73;;;2.87;;
34920;SDS011;21128;50.016;20.002;2022-08-14T10:24:37;3.45;;;3.15;;
34920;SDS011;21128;50.016;20.002;2022-08-14T10:32:26;2.77;;;2.47;;
34920;SDS011;21128;50.016;20.002;2022-08-14T10:35:02;2.73;;;2.20;;
34920;SDS011;21128;50.016;20.002;2022-08-14T10:40:05;4.73;;;2.97;;
34920;SDS011;21128;50.016;20.002;2022-08-14T10:42:33;2.67;;;2.47;;
34920;SDS011;21128;50.016;20.002;2022-08-14T10:45:02;3.10;;;2.80;;
34920;SDS011;21128;50.016;20.002;2022-08-14T10:47:33;3.63;;;2.80;;
34920;SDS011;21128;50.016;20.002;2022-08-14T10:50:02;9.28;;;2.92;;
34920;SDS011;21128;50.016;20.002;2022-08-14T10:52:30;3.10;;;2.70;;
34920;SDS011;21128;50.016;20.002;2022-08-14T10:55:15;3.67;;;2.80;;
34920;SDS011;21128;50.016;20.002;2022-08-14T10:57:51;2.57;;;2.37;;
34920;SDS011;21128;50.016;20.002;2022-08-14T11:00:20;2.77;;;2.40;;
34920;SDS011;21128;50.016;20.002;2022-08-14T11:02:59;3.10;;;2.60;;
34920;SDS011;21128;50.016;20.002;2022-08-14T11:05:39;2.77;;;2.37;;
34920;SDS011;21128;50.016;20.002;2022-08-14T11:08:15;5.20;;;2.70;;
34920;SDS011;21128;50.016;20.002;2022-08-14T11:10:57;2.37;;;2.00;;
34920;SDS011;21128;50.016;20.002;2022-08-14T11:13:28;3.17;;;2.20;;
34920;SDS011;21128;50.016;20.002;2022-08-14T11:16:03;3.57;;;2.23;;
34920;SDS011;21128;50.016;20.002;2022-08-14T11:18:36;2.00;;;1.90;;
34920;SDS011;21128;50.016;20.002;2022-08-14T11:21:04;3.35;;;2.45;;
34920;SDS011;21128;50.016;20.002;2022-08-14T11:23:34;2.30;;;2.03;;
34920;SDS011;21128;50.016;20.002;2022-08-14T11:26:04;2.83;;;2.13;;
34920;SDS011;21128;50.016;20.002;2022-08-14T11:28:37;4.85;;;2.55;;
34920;SDS011;21128;50.016;20.002;2022-08-14T11:33:34;2.85;;;2.55;;
34920;SDS011;21128;50.016;20.002;2022-08-14T11:36:04;2.95;;;2.35;;
34920;SDS011;21128;50.016;20.002;2022-08-14T11:38:39;3.30;;;2.80;;
34920;SDS011;21128;50.016;20.002;2022-08-14T11:41:14;3.87;;;3.53;;
34920;SDS011;21128;50.016;20.002;2022-08-14T11:43:42;3.20;;;2.77;;
34920;SDS011;21128;50.016;20.002;2022-08-14T11:46:10;3.70;;;3.10;;
34920;SDS011;21128;50.016;20.002;2022-08-14T11:48:48;6.17;;;3.30;;
34920;SDS011;21128;50.016;20.002;2022-08-14T11:51:23;4.07;;;3.00;;
34920;SDS011;21128;50.016;20.002;2022-08-14T11:54:04;3.27;;;2.97;;
34920;SDS011;21128;50.016;20.002;2022-08-14T11:56:35;3.60;;;2.70;;
34920;SDS011;21128;50.016;20.002;2022-08-14T11:59:05;4.33;;;3.37;;
34920;SDS011;21128;50.016;20.002;2022-08-14T12:01:34;3.17;;;2.80;;
34920;SDS011;21128;50.016;20.002;2022-08-14T12:04:08;3.87;;;2.90;;
34920;SDS011;21128;50.016;20.002;2022-08-14T12:06:50;4.10;;;3.03;;
34920;SDS011;21128;50.016;20.002;2022-08-14T12:09:28;4.23;;;2.67;;
34920;SDS011;21128;50.016;20.002;2022-08-14T12:12:00;3.90;;;3.07;;
34920;SDS011;21128;50.016;20.002;2022-08-14T12:14:51;3.03;;;2.73;;
34920;SDS011;21128;50.016;20.002;2022-08-14T12:17:23;3.40;;;2.60;;
34920;SDS011;21128;50.016;20.002;2022-08-14T12:19:52;8.57;;;5.00;;
34920;SDS011;21128;50.016;20.002;2022-08-14T12:22:33;3.30;;;2.33;;
34920;SDS011;21128;50.016;20.002;2022-08-14T12:25:02;3.20;;;2.03;;
34920;SDS011;21128;50.016;20.002;2022-08-14T12:30:12;2.50;;;2.30;;
34920;SDS011;21128;50.016;20.002;2022-08-14T12:32:43;3.40;;;2.07;;
34920;SDS011;21128;50.016;20.002;2022-08-14T12:35:12;3.17;;;2.03;;
34920;SDS011;21128;50.016;20.002;2022-08-14T12:37:46;4.67;;;2.43;;
34920;SDS011;21128;50.016;20.002;2022-08-14T12:40:14;2.63;;;2.37;;
34920;SDS011;21128;50.016;20.002;2022-08-14T12:42:49;4.70;;;2.20;;
34920;SDS011;21128;50.016;20.002;2022-08-14T12:45:27;2.70;;;2.00;;
34920;SDS011;21128;50.016;20.002;2022-08-14T12:47:59;2.20;;;1.90;;
34920;SDS011;21128;50.016;20.002;2022-08-14T12:50:34;4.07;;;2.07;;
34920;SDS011;21128;50.016;20.002;2022-08-14T12:53:10;2.53;;;2.33;;
34920;SDS011;21128;50.016;20.002;2022-08-14T12:55:44;2.67;;;2.30;;
34920;SDS011;21128;50.016;20.002;2022-08-14T12:58:18;4.63;;;3.03;;
34920;SDS011;21128;50.016;20.002;2022-08-14T13:00:47;6.80;;;3.67;;
34920;SDS011;21128;50.016;20.002;2022-08-14T13:03:24;6.63;;;4.73;;
34920;SDS011;21128;50.016;20.002;2022-08-14T13:05:52;6.47;;;5.03;;
34920;SDS011;21128;50.016;20.002;2022-08-14T13:08:20;5.37;;;4.60;;
34920;SDS011;21128;50.016;20.002;2022-08-14T13:10:48;5.87;;;4.40;;
34920;SDS011;21128;50.016;20.002;2022-08-14T13:13:16;4.40;;;4.00;;
34920;SDS011;21128;50.016;20.002;2022-08-14T13:15:47;6.50;;;4.03;;
34920;SDS011;21128;50.016;20.002;2022-08-14T13:18:19;5.37;;;4.70;;
34920;SDS011;21128;50.016;20.002;2022-08-14T13:20:55;7.60;;;5.37;;
34920;SDS011;21128;50.016;20.002;2022-08-14T13:23:24;6.97;;;5.00;;
34920;SDS011;21128;50.016;20.002;2022-08-14T13:25:52;6.13;;;4.80;;
34920;SDS011;21128;50.016;20.002;2022-08-14T13:28:21;7.20;;;5.23;;
34920;SDS011;21128;50.016;20.002;2022-08-14T13:30:52;5.47;;;4.97;;
34920;SDS011;21128;50.016;20.002;2022-08-14T13:33:29;5.33;;;4.83;;
34920;SDS011;21128;50.016;20.002;2022-08-14T13:36:03;6.07;;;4.80;;
34920;SDS011;21128;50.016;20.002;2022-08-14T13:38:30;5.50;;;5.00;;
34920;SDS011;21128;50.016;20.002;2022-08-14T13:40:59;6.73;;;4.83;;
34920;SDS011;21128;50.016;20.002;2022-08-14T13:43:34;5.40;;;4.90;;
34920;SDS011;21128;50.016;20.002;2022-08-14T13:46:05;7.20;;;6.00;;
34920;SDS011;21128;50.016;20.002;2022-08-14T13:48:32;6.97;;;6.00;;
34920;SDS011;21128;50.016;20.002;2022-08-14T13:50:59;6.00;;;5.27;;
34920;SDS011;21128;50.016;20.002;2022-08-14T13:53:49;5.17;;;4.60;;
34920;SDS011;21128;50.016;20.002;2022-08-14T13:56:16;5.35;;;4.80;;
34920;SDS011;21128;50.016;20.002;2022-08-14T13:58:44;6.85;;;4.47;;
34920;SDS011;21128;50.016;20.002;2022-08-14T14:01:15;7.03;;;5.15;;
34920;SDS011;21128;50.016;20.002;2022-08-14T14:03:43;6.67;;;4.22;;
34920;SDS011;21128;50.016;20.002;2022-08-14T14:06:12;6.00;;;4.60;;
34920;SDS011;21128;50.016;20.002;2022-08-14T14:08:44;9.30;;;5.50;;
34920;SDS011;21128;50.016;20.002;2022-08-14T14:11:17;6.17;;;4.95;;
34920;SDS011;21128;50.016;20.002;2022-08-14T14:13:50;6.27;;;5.10;;
34920;SDS011;21128;50.016;20.002;2022-08-14T14:16:19;6.83;;;4.63;;
34920;SDS011;21128;50.016;20.002;2022-08-14T14:18:48;6.47;;;4.53;;
34920;SDS011;21128;50.016;20.002;2022-08-14T14:21:17;5.45;;;4.85;;
34920;SDS011;21128;50.016;20.002;2022-08-14T14:23:45;7.43;;;4.80;;
34920;SDS011;21128;50.016;20.002;2022-08-14T14:26:13;6.87;;;5.07;;
34920;SDS011;21128;50.016;20.002;2022-08-14T14:28:46;7.63;;;5.27;;
34920;SDS011;21128;50.016;20.002;2022-08-14T14:31:21;9.13;;;5.57;;
34920;SDS011;21128;50.016;20.002;2022-08-14T14:34:01;6.57;;;5.97;;
34920;SDS011;21128;50.016;20.002;2022-08-14T14:36:30;6.67;;;5.93;;
34920;SDS011;21128;50.016;20.002;2022-08-14T14:38:59;7.47;;;6.20;;
34920;SDS011;21128;50.016;20.002;2022-08-14T14:41:36;7.77;;;5.90;;
34920;SDS011;21128;50.016;20.002;2022-08-14T14:44:11;7.30;;;6.53;;
34920;SDS011;21128;50.016;20.002;2022-08-14T14:46:40;6.73;;;6.00;;
34920;SDS011;21128;50.016;20.002;2022-08-14T14:49:09;7.30;;;6.17;;
34920;SDS011;21128;50.016;20.002;2022-08-14T14:51:39;8.40;;;5.90;;
34920;SDS011;21128;50.016;20.002;2022-08-14T14:54:15;7.27;;;6.50;;
34920;SDS011;21128;50.016;20.002;2022-08-14T14:56:49;6.97;;;6.30;;
34920;SDS011;21128;50.016;20.002;2022-08-14T14:59:17;8.37;;;6.80;;
34920;SDS011;21128;50.016;20.002;2022-08-14T15:01:47;10.67;;;7.17;;
34920;SDS011;21128;50.016;20.002;2022-08-14T15:04:15;9.13;;;6.27;;
34920;SDS011;21128;50.016;20.002;2022-08-14T15:06:42;8.37;;;6.57;;
34920;SDS011;21128;50.016;20.002;2022-08-14T15:09:10;8.03;;;6.93;;
34920;SDS011;21128;50.016;20.002;2022-08-14T15:11:37;7.13;;;6.40;;
34920;SDS011;21128;50.016;20.002;2022-08-14T15:14:03;9.27;;;6.90;;
34920;SDS011;21128;50.016;20.002;2022-08-14T15:16:30;7.95;;;6.70;;
34920;SDS011;21128;50.016;20.002;2022-08-14T15:18:57;7.07;;;6.33;;